Time;durP1;ratioP1;P1;durP2;ratioP2;P2;SDS_P1;SDS_P2;PMS_P1;PMS_P2;Temp;Humidity;BMP_temperature;BMP_pressure;BME280_temperature;BME280_humidity;BME280_pressure;Samples;Min_cycle;Max_cycle;Signal;HPM_P1;HPM_P2
2022/08/19 00:01:07;;;;;;;;;;;20.30;99.90;;;;;;5057209;28;20337;-79
2022/08/19 00:03:33;;;;;;;;;;;20.50;99.90;;;;;;5075350;28;19966;-79
2022/08/19 00:05:59;;;;;;;;;;;20.80;99.90;;;;;;5056290;28;19909;-80
2022/08/19 00:08:25;;;;;;;;;;;20.80;99.90;;;;;;5077094;28;19909;-80
2022/08/19 00:10:50;;;;;;;;;;;20.90;99.90;;;;;;5057779;28;19908;-79
2022/08/19 00:13:16;;;;;;;;;;;21.00;99.90;;;;;;5075761;28;20364;-80
2022/08/19 00:15:44;;;;;;;;;;;21.10;99.90;;;;;;5057528;28;19920;-80
2022/08/19 00:18:10;;;;;;;;;;;21.20;99.90;;;;;;5076240;28;19909;-80
2022/08/19 00:20:38;;;;;;;;;;;21.10;99.90;;;;;;5075671;28;19908;-79
2022/08/19 00:23:03;;;;;;;;;;;21.00;99.90;;;;;;5075712;28;19912;-80
2022/08/19 00:25:29;;;;;;;;;;;21.00;99.90;;;;;;5075086;28;19961;-79
2022/08/19 00:27:55;;;;;;;;;;;21.10;99.90;;;;;;5075806;28;20264;-80
2022/08/19 00:30:21;;;;;;;;;;;21.10;99.90;;;;;;5057179;28;19920;-79
2022/08/19 00:32:46;;;;;;;;;;;21.10;99.90;;;;;;5074803;28;19908;-80
2022/08/19 00:35:12;;;;;;;;;;;21.20;99.90;;;;;;5074498;28;19916;-79
2022/08/19 00:37:38;;;;;;;;;;;21.30;99.90;;;;;;5074636;28;20364;-79
2022/08/19 00:40:05;;;;;;;;;;;21.40;99.90;;;;;;5075060;28;19913;-80
2022/08/19 00:42:30;;;;;;;;;;;21.20;99.90;;;;;;5075041;28;19995;-79
2022/08/19 00:44:56;;;;;;;;;;;21.00;99.90;;;;;;5074766;28;19955;-79
2022/08/19 00:47:22;;;;;;;;;;;21.00;99.90;;;;;;5074768;28;19925;-80
2022/08/19 00:49:51;;;;;;;;;;;21.10;99.90;;;;;;5075054;28;19915;-81
2022/08/19 00:52:19;;;;;;;;;;;21.20;99.90;;;;;;5074964;28;19908;-81
2022/08/19 00:54:46;;;;;;;;;;;21.20;99.90;;;;;;5074267;28;19924;-80
2022/08/19 00:57:14;;;;;;;;;;;21.20;99.90;;;;;;5074843;28;19948;-79
2022/08/19 00:59:41;;;;;;;;;;;21.20;99.90;;;;;;5075214;28;19909;-80
2022/08/19 01:02:07;;;;;;;;;;;21.20;99.90;;;;;;5057154;28;19995;-79
2022/08/19 01:04:33;;;;;;;;;;;21.20;99.90;;;;;;5056771;28;20029;-81
2022/08/19 01:06:59;;;;;;;;;;;21.20;99.90;;;;;;5075617;28;19916;-80
2022/08/19 01:09:25;;;;;;;;;;;21.20;99.90;;;;;;5074871;28;19908;-80
2022/08/19 01:11:51;;;;;;;;;;;21.20;99.90;;;;;;5074919;28;19972;-80
2022/08/19 01:14:17;;;;;;;;;;;21.00;99.90;;;;;;5074937;28;19909;-80
2022/08/19 01:16:43;;;;;;;;;;;21.00;99.90;;;;;;5074314;28;19916;-79
2022/08/19 01:19:12;;;;;;;;;;;21.10;99.90;;;;;;5078630;28;19987;-79
2022/08/19 01:21:42;;;;;;;;;;;20.80;99.90;;;;;;5078220;28;20003;-79
2022/08/19 01:24:08;;;;;;;;;;;20.70;99.90;;;;;;5059974;28;19908;-80
2022/08/19 01:26:38;;;;;;;;;;;20.60;99.90;;;;;;5078167;28;20389;-80
2022/08/19 01:29:03;;;;;;;;;;;20.70;99.90;;;;;;5078897;28;19935;-79
2022/08/19 01:31:32;;;;;;;;;;;20.70;99.90;;;;;;5077583;28;20368;-80
2022/08/19 01:33:58;;;;;;;;;;;20.60;99.90;;;;;;5077468;28;19908;-80
2022/08/19 01:36:26;;;;;;;;;;;20.40;99.90;;;;;;5077538;28;20003;-81
2022/08/19 01:38:52;;;;;;;;;;;20.50;99.90;;;;;;5077561;28;20400;-79
2022/08/19 01:41:18;;;;;;;;;;;20.60;99.90;;;;;;5077185;28;19909;-80
2022/08/19 01:43:44;;;;;;;;;;;20.70;99.90;;;;;;5077203;28;20430;-81
2022/08/19 01:46:10;;;;;;;;;;;20.80;99.90;;;;;;5076910;28;19987;-81
2022/08/19 01:48:37;;;;;;;;;;;21.00;99.90;;;;;;5077684;28;19989;-80
2022/08/19 01:51:02;;;;;;;;;;;20.90;99.90;;;;;;5076992;28;19908;-81
2022/08/19 01:53:28;;;;;;;;;;;20.70;99.90;;;;;;5077099;28;19909;-80
2022/08/19 01:55:55;;;;;;;;;;;20.80;99.90;;;;;;5077018;28;19974;-80
2022/08/19 01:58:22;;;;;;;;;;;21.00;99.90;;;;;;5077216;28;19909;-79
2022/08/19 02:00:48;;;;;;;;;;;20.90;99.90;;;;;;5076718;28;20314;-81
2022/08/19 02:03:14;;;;;;;;;;;21.00;99.90;;;;;;5077075;28;19934;-79
2022/08/19 02:05:40;;;;;;;;;;;21.10;99.90;;;;;;5077270;28;19954;-79
2022/08/19 02:08:06;;;;;;;;;;;20.90;99.90;;;;;;5077554;28;19944;-80
2022/08/19 02:10:31;;;;;;;;;;;20.80;99.90;;;;;;5076869;28;19915;-81
2022/08/19 02:12:57;;;;;;;;;;;20.80;99.90;;;;;;5076530;28;19951;-81
2022/08/19 02:15:25;;;;;;;;;;;20.90;99.90;;;;;;5076273;28;20558;-80
2022/08/19 02:17:51;;;;;;;;;;;20.80;99.90;;;;;;5076425;28;19908;-80
2022/08/19 02:20:16;;;;;;;;;;;20.70;99.90;;;;;;5076534;28;19916;-80
2022/08/19 02:22:43;;;;;;;;;;;20.70;99.90;;;;;;5058062;28;20376;-80
2022/08/19 02:25:11;;;;;;;;;;;20.50;99.90;;;;;;5076177;28;19912;-79
2022/08/19 02:27:37;;;;;;;;;;;20.50;99.90;;;;;;5076149;28;19915;-82
2022/08/19 02:30:05;;;;;;;;;;;20.50;99.90;;;;;;5075460;28;20284;-80
2022/08/19 02:32:30;;;;;;;;;;;20.40;99.90;;;;;;5075872;28;19912;-79
2022/08/19 02:34:56;;;;;;;;;;;20.50;99.90;;;;;;5075972;28;20384;-80
2022/08/19 02:40:06;;;;;;;;;;;20.30;99.90;;;;;;5075878;28;20327;-81
2022/08/19 02:42:32;;;;;;;;;;;20.20;99.90;;;;;;5076004;28;19915;-79
2022/08/19 02:44:58;;;;;;;;;;;20.30;99.90;;;;;;5075793;28;19908;-81
2022/08/19 02:47:23;;;;;;;;;;;20.20;99.90;;;;;;5057801;28;20011;-79
2022/08/19 02:49:52;;;;;;;;;;;19.90;99.90;;;;;;5076040;28;19909;-80
2022/08/19 02:52:17;;;;;;;;;;;19.80;99.90;;;;;;5075823;28;19908;-80
2022/08/19 02:54:43;;;;;;;;;;;19.80;99.90;;;;;;5075432;28;20422;-79
2022/08/19 02:57:09;;;;;;;;;;;19.90;99.90;;;;;;5075990;28;19954;-80
2022/08/19 02:59:35;;;;;;;;;;;19.90;99.90;;;;;;5075766;28;19915;-80
2022/08/19 03:02:00;;;;;;;;;;;20.20;99.90;;;;;;5075788;28;19908;-80
2022/08/19 03:04:26;;;;;;;;;;;20.30;99.90;;;;;;5057565;28;19908;-79
2022/08/19 03:06:52;;;;;;;;;;;20.30;99.90;;;;;;5075867;28;19909;-80
2022/08/19 03:09:18;;;;;;;;;;;20.30;99.90;;;;;;5075815;28;19915;-80
2022/08/19 03:11:44;;;;;;;;;;;20.40;99.90;;;;;;5075624;28;19919;-80
2022/08/19 03:14:10;;;;;;;;;;;20.40;99.90;;;;;;5075128;28;19909;-81
2022/08/19 03:16:43;;;;;;;;;;;20.40;99.90;;;;;;5075801;28;19908;-79
2022/08/19 03:19:09;;;;;;;;;;;20.50;99.90;;;;;;5075227;28;19909;-81
2022/08/19 03:21:34;;;;;;;;;;;20.30;99.90;;;;;;5075080;28;19908;-80
2022/08/19 03:24:02;;;;;;;;;;;20.30;99.90;;;;;;5074850;28;19909;-79
2022/08/19 03:26:28;;;;;;;;;;;20.40;99.90;;;;;;5074729;28;20360;-79
2022/08/19 03:28:53;;;;;;;;;;;20.50;99.90;;;;;;5074725;28;19998;-81
2022/08/19 03:31:23;;;;;;;;;;;20.50;99.90;;;;;;5074829;28;19957;-81
2022/08/19 03:33:50;;;;;;;;;;;20.50;99.90;;;;;;5056543;28;20382;-81
2022/08/19 03:36:17;;;;;;;;;;;20.50;99.90;;;;;;5074906;28;19913;-80
2022/08/19 03:38:44;;;;;;;;;;;20.20;99.90;;;;;;5075054;28;19916;-81
2022/08/19 03:41:12;;;;;;;;;;;20.20;99.90;;;;;;5073725;28;19995;-80
2022/08/19 03:43:38;;;;;;;;;;;20.10;99.90;;;;;;5074499;28;19915;-80
2022/08/19 03:46:06;;;;;;;;;;;20.10;99.90;;;;;;5074279;28;19912;-81
2022/08/19 03:48:32;;;;;;;;;;;20.20;99.90;;;;;;5074805;28;19908;-79
2022/08/19 03:50:58;;;;;;;;;;;20.30;99.90;;;;;;5074867;28;19908;-81
2022/08/19 03:53:25;;;;;;;;;;;20.40;99.90;;;;;;5074412;28;19919;-79
2022/08/19 03:55:51;;;;;;;;;;;20.40;99.90;;;;;;5056738;28;19928;-81
2022/08/19 03:58:17;;;;;;;;;;;20.20;99.90;;;;;;5056328;28;19912;-80
2022/08/19 04:00:42;;;;;;;;;;;20.20;99.90;;;;;;5074786;28;20425;-80
2022/08/19 04:03:08;;;;;;;;;;;20.00;99.90;;;;;;5074530;28;19931;-80
2022/08/19 04:05:34;;;;;;;;;;;19.90;99.90;;;;;;5074246;28;19977;-80
2022/08/19 04:08:00;;;;;;;;;;;19.90;99.90;;;;;;5074920;28;19908;-80
2022/08/19 04:10:27;;;;;;;;;;;19.80;99.90;;;;;;5074289;28;20382;-79
2022/08/19 04:12:52;;;;;;;;;;;19.80;99.90;;;;;;5074359;28;19913;-79
2022/08/19 04:15:18;;;;;;;;;;;19.90;99.90;;;;;;5074151;28;20364;-80
2022/08/19 04:17:44;;;;;;;;;;;20.00;99.90;;;;;;5074264;28;19913;-80
2022/08/19 04:20:10;;;;;;;;;;;20.10;99.90;;;;;;5074547;28;19995;-81
2022/08/19 04:22:35;;;;;;;;;;;20.00;99.90;;;;;;5074405;28;20372;-79
2022/08/19 04:25:01;;;;;;;;;;;20.00;99.90;;;;;;5074304;28;20348;-80
2022/08/19 04:27:26;;;;;;;;;;;20.10;99.90;;;;;;5074258;28;20291;-80
2022/08/19 04:29:54;;;;;;;;;;;20.20;99.90;;;;;;5056064;28;19911;-81
2022/08/19 04:32:20;;;;;;;;;;;20.10;99.90;;;;;;5055866;28;19909;-80
2022/08/19 04:34:46;;;;;;;;;;;20.00;99.90;;;;;;5073969;28;19913;-80
2022/08/19 04:37:12;;;;;;;;;;;20.00;99.90;;;;;;5074176;28;19999;-80
2022/08/19 04:42:41;;;;;;;;;;;20.00;99.90;;;;;;5074058;28;19932;-80
2022/08/19 04:45:09;;;;;;;;;;;20.20;99.90;;;;;;5074449;28;19909;-80
2022/08/19 04:47:36;;;;;;;;;;;20.10;99.90;;;;;;5055996;28;19916;-79
2022/08/19 04:50:02;;;;;;;;;;;20.10;99.90;;;;;;5073836;28;19909;-80
2022/08/19 04:52:28;;;;;;;;;;;20.10;99.90;;;;;;5075109;28;19909;-79
2022/08/19 04:54:55;;;;;;;;;;;20.20;99.90;;;;;;5078019;28;19920;-81
2022/08/19 04:57:21;;;;;;;;;;;20.10;99.90;;;;;;5078040;28;19915;-79
2022/08/19 04:59:46;;;;;;;;;;;20.00;99.90;;;;;;5077614;28;19909;-80
2022/08/19 05:02:12;;;;;;;;;;;20.00;99.90;;;;;;5077598;28;19908;-79
2022/08/19 05:04:39;;;;;;;;;;;20.00;99.90;;;;;;5059515;28;19959;-80
2022/08/19 05:07:04;;;;;;;;;;;20.10;99.90;;;;;;5078057;28;20435;-79
2022/08/19 05:09:30;;;;;;;;;;;20.20;99.90;;;;;;5077260;28;19964;-79
2022/08/19 05:11:56;;;;;;;;;;;20.20;99.90;;;;;;5077742;28;20303;-79
2022/08/19 05:14:22;;;;;;;;;;;20.40;99.90;;;;;;5077130;28;19999;-81
2022/08/19 05:16:47;;;;;;;;;;;20.30;99.90;;;;;;5077211;28;20432;-80
2022/08/19 05:24:42;;;;;;;;;;;20.30;99.90;;;;;;5077440;28;19989;-80
2022/08/19 05:27:08;;;;;;;;;;;20.00;99.90;;;;;;5077184;28;20372;-80
2022/08/19 05:29:34;;;;;;;;;;;20.00;99.90;;;;;;5077040;28;19999;-79
2022/08/19 05:32:00;;;;;;;;;;;20.00;99.90;;;;;;5077082;28;19931;-80
2022/08/19 05:34:26;;;;;;;;;;;20.10;99.90;;;;;;5076777;28;19909;-80
2022/08/19 05:36:56;;;;;;;;;;;20.20;99.90;;;;;;5076966;28;19908;-79
2022/08/19 05:39:21;;;;;;;;;;;20.20;99.90;;;;;;5076921;28;19916;-80
2022/08/19 05:41:48;;;;;;;;;;;20.30;99.90;;;;;;5077128;28;19909;-81
2022/08/19 05:44:15;;;;;;;;;;;20.10;99.90;;;;;;5077071;28;19913;-79
2022/08/19 05:46:43;;;;;;;;;;;20.00;99.90;;;;;;5076674;28;19923;-81
2022/08/19 05:49:08;;;;;;;;;;;20.00;99.90;;;;;;5076975;28;19915;-79
2022/08/19 05:51:36;;;;;;;;;;;19.90;99.90;;;;;;5076884;28;19908;-81
2022/08/19 05:54:04;;;;;;;;;;;19.90;99.90;;;;;;5076892;28;19942;-79
2022/08/19 05:56:30;;;;;;;;;;;19.90;99.90;;;;;;5076518;28;19966;-79
2022/08/19 05:58:56;;;;;;;;;;;19.90;99.90;;;;;;5077156;28;20003;-80
2022/08/19 06:01:21;;;;;;;;;;;20.00;99.90;;;;;;5058444;28;19956;-80
2022/08/19 06:03:47;;;;;;;;;;;20.10;99.90;;;;;;5075610;28;19958;-80
2022/08/19 06:06:14;;;;;;;;;;;20.10;99.90;;;;;;5076487;28;19908;-82
2022/08/19 06:08:42;;;;;;;;;;;20.10;99.90;;;;;;5076873;28;19916;-81
2022/08/19 06:11:20;;;;;;;;;;;20.30;99.90;;;;;;5076599;28;20391;-79
2022/08/19 06:13:47;;;;;;;;;;;20.30;99.90;;;;;;5058291;28;20002;-80
2022/08/19 06:16:19;;;;;;;;;;;20.40;99.90;;;;;;5076473;28;19912;-78
2022/08/19 06:18:44;;;;;;;;;;;20.40;99.90;;;;;;5076195;28;19912;-80
2022/08/19 06:21:10;;;;;;;;;;;20.30;99.90;;;;;;5076187;28;19915;-81
2022/08/19 06:23:36;;;;;;;;;;;20.20;99.90;;;;;;5076212;28;19923;-81
2022/08/19 06:26:01;;;;;;;;;;;20.30;99.90;;;;;;5076061;28;19934;-79
2022/08/19 06:28:27;;;;;;;;;;;20.40;99.90;;;;;;5075851;28;19908;-79
2022/08/19 06:30:52;;;;;;;;;;;20.60;99.90;;;;;;5057910;28;20407;-78
2022/08/19 06:33:18;;;;;;;;;;;20.80;99.90;;;;;;5076328;28;20361;-80
2022/08/19 06:35:44;;;;;;;;;;;20.80;99.90;;;;;;5075912;28;19916;-78
2022/08/19 06:38:09;;;;;;;;;;;20.90;99.90;;;;;;5075505;28;20284;-79
2022/08/19 06:40:37;;;;;;;;;;;20.80;99.90;;;;;;5076258;28;19924;-79
2022/08/19 06:43:03;;;;;;;;;;;20.70;99.90;;;;;;5057659;28;19999;-79
2022/08/19 06:45:28;;;;;;;;;;;20.80;99.90;;;;;;5075503;28;19951;-80
2022/08/19 06:47:55;;;;;;;;;;;20.70;99.90;;;;;;5075147;28;19965;-79
2022/08/19 06:50:24;;;;;;;;;;;20.60;99.90;;;;;;5075613;28;19909;-81
2022/08/19 06:52:49;;;;;;;;;;;20.80;99.90;;;;;;5075810;28;19909;-79
2022/08/19 06:55:15;;;;;;;;;;;20.90;99.90;;;;;;5075770;28;19924;-80
2022/08/19 06:57:42;;;;;;;;;;;21.20;99.90;;;;;;5075725;28;19915;-80
2022/08/19 07:00:12;;;;;;;;;;;21.20;99.90;;;;;;5075710;28;19909;-81
2022/08/19 07:02:40;;;;;;;;;;;21.20;99.90;;;;;;5075557;28;19936;-79
2022/08/19 07:05:06;;;;;;;;;;;21.30;99.90;;;;;;5075570;28;19909;-80
2022/08/19 07:07:32;;;;;;;;;;;21.30;99.90;;;;;;5076084;28;19915;-82
2022/08/19 07:09:58;;;;;;;;;;;21.20;99.90;;;;;;5075388;28;19908;-79
2022/08/19 07:12:23;;;;;;;;;;;21.30;99.90;;;;;;5075395;28;19920;-78
2022/08/19 07:14:49;;;;;;;;;;;21.40;99.90;;;;;;5057164;28;20293;-78
2022/08/19 07:17:15;;;;;;;;;;;21.50;99.90;;;;;;5075227;28;19995;-80
2022/08/19 07:19:41;;;;;;;;;;;21.60;99.90;;;;;;5057337;28;20385;-79
2022/08/19 07:22:07;;;;;;;;;;;21.60;99.90;;;;;;5075351;28;19908;-81
2022/08/19 07:24:32;;;;;;;;;;;21.60;99.90;;;;;;5074932;28;19915;-79
2022/08/19 07:27:03;;;;;;;;;;;21.80;99.90;;;;;;5075145;28;20295;-79
2022/08/19 07:29:30;;;;;;;;;;;21.90;99.90;;;;;;5074737;28;20382;-80
2022/08/19 07:31:58;;;;;;;;;;;22.00;99.90;;;;;;5074907;28;19915;-80
2022/08/19 07:34:24;;;;;;;;;;;22.20;99.90;;;;;;5074859;28;20437;-81
2022/08/19 07:36:50;;;;;;;;;;;22.20;99.90;;;;;;5074455;28;20003;-79
2022/08/19 07:39:20;;;;;;;;;;;22.20;99.90;;;;;;5074467;28;19931;-80
2022/08/19 07:41:46;;;;;;;;;;;22.20;99.90;;;;;;5075147;28;20342;-81
2022/08/19 07:44:12;;;;;;;;;;;22.00;99.90;;;;;;5074739;28;19914;-80
2022/08/19 07:46:39;;;;;;;;;;;21.90;99.90;;;;;;5074444;28;20360;-79
2022/08/19 07:49:14;;;;;;;;;;;21.90;99.90;;;;;;5074993;28;19908;-79
2022/08/19 07:51:40;;;;;;;;;;;22.10;99.90;;;;;;5075113;28;19954;-79
2022/08/19 07:54:05;;;;;;;;;;;22.10;99.90;;;;;;5074834;28;19912;-80
2022/08/19 07:56:31;;;;;;;;;;;22.00;99.90;;;;;;5074942;28;19916;-80
2022/08/19 07:58:57;;;;;;;;;;;22.00;99.90;;;;;;5074420;28;19909;-80
2022/08/19 08:01:23;;;;;;;;;;;22.10;99.90;;;;;;5074809;28;19909;-81
2022/08/19 08:09:21;;;;;;;;;;;24.30;99.90;;;;;;5075564;28;19916;-82
2022/08/19 08:11:52;;;;;;;;;;;25.10;99.90;;;;;;5074574;28;19916;-80
2022/08/19 08:14:23;;;;;;;;;;;25.80;99.90;;;;;;5075265;28;19909;-81
2022/08/19 08:16:50;;;;;;;;;;;27.20;99.90;;;;;;5056740;28;19916;-80
2022/08/19 08:19:16;;;;;;;;;;;28.70;99.90;;;;;;5075007;28;20369;-82
2022/08/19 08:21:42;;;;;;;;;;;27.70;99.90;;;;;;5075057;28;19915;-81
2022/08/19 08:24:08;;;;;;;;;;;27.80;99.90;;;;;;5075311;28;19915;-80
2022/08/19 08:26:33;;;;;;;;;;;28.70;99.90;;;;;;5075246;28;19999;-81
2022/08/19 08:28:59;;;;;;;;;;;28.80;99.90;;;;;;5078957;28;19916;-79
2022/08/19 08:31:25;;;;;;;;;;;27.50;99.90;;;;;;5079103;28;20406;-79
2022/08/19 08:33:50;;;;;;;;;;;26.70;99.90;;;;;;5079008;28;19908;-79
2022/08/19 08:36:16;;;;;;;;;;;25.50;99.90;;;;;;5079003;28;20260;-80
2022/08/19 08:38:45;;;;;;;;;;;25.20;99.90;;;;;;5079311;28;20365;-80
2022/08/19 08:41:19;;;;;;;;;;;24.70;99.90;;;;;;5078746;28;19999;-80
2022/08/19 08:43:46;;;;;;;;;;;24.60;99.90;;;;;;5079207;28;19919;-79
2022/08/19 08:46:17;;;;;;;;;;;24.40;99.90;;;;;;5078653;28;19919;-81
2022/08/19 08:48:53;;;;;;;;;;;24.30;99.90;;;;;;5078712;28;19916;-80
2022/08/19 08:51:32;;;;;;;;;;;24.20;99.90;;;;;;5079157;28;19993;-79
2022/08/19 08:54:01;;;;;;;;;;;24.00;99.90;;;;;;5077850;28;20211;-79
2022/08/19 08:56:26;;;;;;;;;;;23.70;99.90;;;;;;5078522;28;19955;-80
2022/08/19 08:58:56;;;;;;;;;;;23.70;99.90;;;;;;5078760;28;19908;-81
2022/08/19 09:01:22;;;;;;;;;;;24.00;99.90;;;;;;5078704;28;19991;-82
2022/08/19 09:03:48;;;;;;;;;;;25.50;99.90;;;;;;5078696;28;19995;-80
2022/08/19 09:06:22;;;;;;;;;;;27.10;99.90;;;;;;5060519;28;19956;-81
2022/08/19 09:09:08;;;;;;;;;;;27.40;99.90;;;;;;5078878;28;19958;-79
2022/08/19 09:11:44;;;;;;;;;;;26.40;99.90;;;;;;5043555;28;19919;-80
2022/08/19 09:14:18;;;;;;;;;;;25.50;99.90;;;;;;5078408;28;19915;-79
2022/08/19 09:16:44;;;;;;;;;;;25.80;99.90;;;;;;5078613;28;19916;-80
2022/08/19 09:19:10;;;;;;;;;;;25.50;99.90;;;;;;5078507;28;20339;-79
2022/08/19 09:21:36;;;;;;;;;;;24.70;99.90;;;;;;5079020;28;19955;-82
2022/08/19 09:24:02;;;;;;;;;;;24.80;99.90;;;;;;5078725;28;19909;-80
2022/08/19 09:26:28;;;;;;;;;;;25.20;99.90;;;;;;5078470;28;20433;-80
2022/08/19 09:28:54;;;;;;;;;;;25.70;99.90;;;;;;5078184;28;19908;-80
2022/08/19 09:31:22;;;;;;;;;;;25.40;99.90;;;;;;5078256;28;19908;-79
2022/08/19 09:33:47;;;;;;;;;;;24.70;99.90;;;;;;5078869;28;19950;-80
2022/08/19 09:36:14;;;;;;;;;;;24.20;99.90;;;;;;5078933;28;20010;-80
2022/08/19 09:38:41;;;;;;;;;;;23.80;99.90;;;;;;5078729;28;20296;-80
2022/08/19 09:41:07;;;;;;;;;;;23.50;99.90;;;;;;5078161;28;19958;-79
2022/08/19 09:43:36;;;;;;;;;;;23.60;99.90;;;;;;5078392;28;19916;-81
2022/08/19 09:46:05;;;;;;;;;;;23.90;99.90;;;;;;5077762;28;19908;-79
2022/08/19 09:48:31;;;;;;;;;;;24.00;99.90;;;;;;5077889;28;19924;-80
2022/08/19 09:51:07;;;;;;;;;;;24.70;99.90;;;;;;5077239;28;19916;-81
2022/08/19 09:53:34;;;;;;;;;;;24.70;99.90;;;;;;5078090;28;20410;-79
2022/08/19 09:56:00;;;;;;;;;;;24.70;99.90;;;;;;5077623;28;19912;-79
2022/08/19 09:58:27;;;;;;;;;;;24.50;99.90;;;;;;5077382;28;19908;-80
2022/08/19 10:00:54;;;;;;;;;;;24.60;99.90;;;;;;5077636;28;19908;-81
2022/08/19 10:03:19;;;;;;;;;;;24.70;99.90;;;;;;5077156;28;19908;-80
2022/08/19 10:05:48;;;;;;;;;;;24.70;99.90;;;;;;5077204;28;19908;-79
2022/08/19 10:08:15;;;;;;;;;;;24.70;99.90;;;;;;5077683;28;19893;-79
2022/08/19 10:10:43;;;;;;;;;;;24.70;99.90;;;;;;5059046;28;20395;-80
2022/08/19 10:13:09;;;;;;;;;;;24.40;99.90;;;;;;5077266;28;19917;-79
2022/08/19 10:15:35;;;;;;;;;;;24.20;99.90;;;;;;5077170;28;19916;-81
2022/08/19 10:18:00;;;;;;;;;;;24.20;99.90;;;;;;5077115;28;19962;-81
2022/08/19 10:20:26;;;;;;;;;;;23.90;99.90;;;;;;5077045;28;19908;-79
2022/08/19 10:22:51;;;;;;;;;;;23.90;99.90;;;;;;5077480;28;19915;-79
2022/08/19 10:25:17;;;;;;;;;;;23.80;99.90;;;;;;5076743;28;19934;-80
2022/08/19 10:27:43;;;;;;;;;;;23.80;99.90;;;;;;5076780;28;20360;-80
2022/08/19 10:30:09;;;;;;;;;;;23.90;99.90;;;;;;5076844;28;19909;-79
2022/08/19 10:32:35;;;;;;;;;;;23.90;99.90;;;;;;5077310;28;20384;-80
2022/08/19 10:35:01;;;;;;;;;;;24.00;99.90;;;;;;5076458;28;19920;-81
2022/08/19 10:37:28;;;;;;;;;;;24.30;99.90;;;;;;5076246;28;19912;-80
2022/08/19 10:39:53;;;;;;;;;;;24.30;99.90;;;;;;5076414;28;19909;-80
2022/08/19 10:42:20;;;;;;;;;;;24.20;99.90;;;;;;5076352;28;19958;-82
2022/08/19 10:44:48;;;;;;;;;;;24.00;99.90;;;;;;5076024;28;20384;-80
2022/08/19 10:47:14;;;;;;;;;;;24.10;99.90;;;;;;5075847;28;19924;-80
2022/08/19 10:52:33;;;;;;;;;;;24.10;99.90;;;;;;5075547;28;20393;-81
2022/08/19 10:52:35;;;;;;;;;;;24.50;99.90;;;;;;5075677;28;19908;-80
2022/08/19 10:57:45;;;;;;;;;;;24.70;99.90;;;;;;5075712;28;19962;-79
2022/08/19 11:00:11;;;;;;;;;;;25.00;99.90;;;;;;5076132;28;19912;-81
2022/08/19 11:02:38;;;;;;;;;;;25.20;99.90;;;;;;5075711;28;19915;-80
2022/08/19 11:05:03;;;;;;;;;;;25.40;99.90;;;;;;5057709;28;19920;-79
2022/08/19 11:07:29;;;;;;;;;;;25.20;99.90;;;;;;5075511;28;19908;-80
2022/08/19 11:09:55;;;;;;;;;;;25.10;99.90;;;;;;5058228;28;19912;-80
2022/08/19 11:12:21;;;;;;;;;;;24.80;99.90;;;;;;5075562;28;19908;-80
2022/08/19 11:14:49;;;;;;;;;;;24.80;99.90;;;;;;5057530;28;19920;-80
2022/08/19 11:17:15;;;;;;;;;;;24.90;99.90;;;;;;5057852;28;20027;-81
2022/08/19 11:19:42;;;;;;;;;;;25.30;99.90;;;;;;5075973;28;20372;-80
2022/08/19 11:22:09;;;;;;;;;;;25.80;99.90;;;;;;5075574;28;19914;-80
2022/08/19 11:24:35;;;;;;;;;;;25.90;99.90;;;;;;5075524;28;19962;-79
2022/08/19 11:27:04;;;;;;;;;;;26.00;99.90;;;;;;5075684;28;19930;-79
2022/08/19 11:29:30;;;;;;;;;;;26.20;99.90;;;;;;5075830;28;19947;-81
2022/08/19 11:31:56;;;;;;;;;;;26.90;99.90;;;;;;5075770;28;19915;-79
2022/08/19 11:34:23;;;;;;;;;;;26.80;99.90;;;;;;5075954;28;19909;-81
2022/08/19 11:36:49;;;;;;;;;;;26.40;99.90;;;;;;5075397;28;19961;-81
2022/08/19 11:39:16;;;;;;;;;;;26.20;99.90;;;;;;5075644;28;20327;-80
2022/08/19 11:41:41;;;;;;;;;;;26.30;99.90;;;;;;5075576;28;19909;-79
2022/08/19 11:44:07;;;;;;;;;;;25.80;99.90;;;;;;5075642;28;19958;-79
2022/08/19 11:46:33;;;;;;;;;;;25.70;99.90;;;;;;5075407;28;20012;-80
2022/08/19 11:49:00;;;;;;;;;;;26.00;99.90;;;;;;5075953;28;19912;-80
2022/08/19 11:51:26;;;;;;;;;;;26.20;99.90;;;;;;5057313;28;19915;-81
2022/08/19 11:53:53;;;;;;;;;;;26.50;99.90;;;;;;5057640;28;20340;-81
2022/08/19 11:56:19;;;;;;;;;;;26.50;99.90;;;;;;5075405;28;20342;-80
2022/08/19 11:58:45;;;;;;;;;;;26.50;99.90;;;;;;5075256;28;19912;-82
2022/08/19 12:01:12;;;;;;;;;;;26.90;99.90;;;;;;5074984;28;19908;-82
2022/08/19 12:03:38;;;;;;;;;;;26.80;99.90;;;;;;5074946;28;20376;-80
2022/08/19 12:06:04;;;;;;;;;;;26.60;99.90;;;;;;5075326;28;19912;-81
2022/08/19 12:08:30;;;;;;;;;;;26.30;99.90;;;;;;5076039;28;19909;-80
2022/08/19 12:10:56;;;;;;;;;;;26.50;99.90;;;;;;5075442;28;19943;-82
2022/08/19 12:13:22;;;;;;;;;;;26.30;99.90;;;;;;5075669;28;20345;-80
2022/08/19 12:15:47;;;;;;;;;;;26.10;99.90;;;;;;5075281;28;19912;-81
2022/08/19 12:18:13;;;;;;;;;;;25.80;99.90;;;;;;5075678;28;20430;-80
2022/08/19 12:20:40;;;;;;;;;;;25.70;99.90;;;;;;5075180;28;19909;-81
2022/08/19 12:23:07;;;;;;;;;;;25.60;99.90;;;;;;5075211;28;19912;-83
2022/08/19 12:25:32;;;;;;;;;;;25.80;99.90;;;;;;5075420;28;19970;-81
2022/08/19 12:27:58;;;;;;;;;;;26.20;99.90;;;;;;5075248;28;20356;-79
2022/08/19 12:30:24;;;;;;;;;;;26.00;99.90;;;;;;5074997;28;19939;-81
2022/08/19 12:32:51;;;;;;;;;;;25.80;99.90;;;;;;5074827;28;19908;-80
2022/08/19 12:35:17;;;;;;;;;;;25.60;99.90;;;;;;5057069;28;20364;-81
2022/08/19 12:37:44;;;;;;;;;;;25.50;99.90;;;;;;5075498;28;20320;-79
2022/08/19 12:40:11;;;;;;;;;;;25.50;99.90;;;;;;5075023;28;19931;-79
2022/08/19 12:42:40;;;;;;;;;;;25.20;99.90;;;;;;5074994;28;19972;-81
2022/08/19 12:45:06;;;;;;;;;;;25.20;99.90;;;;;;5075216;28;19912;-79
2022/08/19 12:47:32;;;;;;;;;;;25.20;99.90;;;;;;5075385;28;19931;-79
2022/08/19 12:49:57;;;;;;;;;;;25.00;99.90;;;;;;5075719;28;19908;-80
2022/08/19 12:52:24;;;;;;;;;;;24.70;99.90;;;;;;5075301;28;19913;-80
2022/08/19 12:54:51;;;;;;;;;;;24.70;99.90;;;;;;5075051;28;19917;-80
2022/08/19 12:57:16;;;;;;;;;;;24.80;99.90;;;;;;5056733;28;20287;-79
2022/08/19 12:59:42;;;;;;;;;;;24.80;99.90;;;;;;5075308;28;19909;-79
2022/08/19 13:02:08;;;;;;;;;;;25.00;99.90;;;;;;5075141;28;19908;-80
2022/08/19 13:04:36;;;;;;;;;;;25.10;99.90;;;;;;5074686;28;20295;-79
2022/08/19 13:07:02;;;;;;;;;;;24.90;99.90;;;;;;5074854;28;20329;-80
2022/08/19 13:09:28;;;;;;;;;;;25.10;99.90;;;;;;5075171;28;19909;-81
2022/08/19 13:11:53;;;;;;;;;;;25.20;99.90;;;;;;5056734;28;19909;-80
2022/08/19 13:14:19;;;;;;;;;;;25.10;99.90;;;;;;5077249;28;19909;-81
2022/08/19 13:16:44;;;;;;;;;;;25.00;99.90;;;;;;5078129;28;20387;-81
2022/08/19 13:19:11;;;;;;;;;;;24.60;99.90;;;;;;5060603;28;19909;-79
2022/08/19 13:21:37;;;;;;;;;;;24.30;99.90;;;;;;5079030;28;19908;-80
2022/08/19 13:24:03;;;;;;;;;;;24.00;99.90;;;;;;5078486;28;19908;-80
2022/08/19 13:26:29;;;;;;;;;;;23.50;99.90;;;;;;5077762;28;19908;-81
2022/08/19 13:34:28;;;;;;;;;;;22.90;99.90;;;;;;5077416;28;19931;-79
2022/08/19 13:36:54;;;;;;;;;;;22.90;99.90;;;;;;5077474;28;19958;-80
2022/08/19 13:39:20;;;;;;;;;;;23.10;99.90;;;;;;5077880;28;19951;-79
2022/08/19 13:41:49;;;;;;;;;;;23.00;99.90;;;;;;5077672;28;20279;-79
2022/08/19 13:44:17;;;;;;;;;;;22.90;99.90;;;;;;5077507;28;20364;-80
2022/08/19 13:46:44;;;;;;;;;;;22.80;99.90;;;;;;5076948;28;20388;-80
2022/08/19 13:49:10;;;;;;;;;;;22.80;99.90;;;;;;5077545;28;20027;-80
2022/08/19 13:51:37;;;;;;;;;;;22.90;99.90;;;;;;5077555;28;19944;-80
2022/08/19 13:54:02;;;;;;;;;;;23.10;99.90;;;;;;5077217;28;19948;-80
2022/08/19 13:56:28;;;;;;;;;;;23.20;99.90;;;;;;5077507;28;20339;-78
2022/08/19 13:58:53;;;;;;;;;;;23.20;99.90;;;;;;5077396;28;19908;-79
2022/08/19 14:01:20;;;;;;;;;;;23.00;99.90;;;;;;5076997;28;19996;-79
2022/08/19 14:03:46;;;;;;;;;;;23.10;99.90;;;;;;5077084;28;19908;-81
2022/08/19 14:06:11;;;;;;;;;;;23.00;99.90;;;;;;5077108;28;19908;-80
2022/08/19 14:08:39;;;;;;;;;;;23.00;99.90;;;;;;5077563;28;19916;-79
2022/08/19 14:11:04;;;;;;;;;;;23.10;99.90;;;;;;5077136;28;19917;-80
2022/08/19 14:13:32;;;;;;;;;;;22.90;99.90;;;;;;5076645;28;19916;-80
2022/08/19 14:15:58;;;;;;;;;;;22.90;99.90;;;;;;5076655;28;19919;-80
2022/08/19 14:18:24;;;;;;;;;;;22.90;99.90;;;;;;5077103;28;19909;-80
2022/08/19 14:20:50;;;;;;;;;;;22.90;99.90;;;;;;5076779;28;20395;-80
2022/08/19 14:23:16;;;;;;;;;;;22.90;99.90;;;;;;5076467;28;19909;-80
2022/08/19 14:25:42;;;;;;;;;;;22.90;99.90;;;;;;5075601;28;19915;-80
2022/08/19 14:28:07;;;;;;;;;;;23.20;99.90;;;;;;5077130;28;19950;-80
2022/08/19 14:30:37;;;;;;;;;;;23.20;99.90;;;;;;5077141;28;19915;-79
2022/08/19 14:33:04;;;;;;;;;;;23.10;99.90;;;;;;5076710;28;19909;-79
2022/08/19 14:35:34;;;;;;;;;;;23.00;99.90;;;;;;5058319;28;19936;-80
2022/08/19 14:38:00;;;;;;;;;;;22.80;99.90;;;;;;5076506;28;19920;-78